Time;durP1;ratioP1;P1;durP2;ratioP2;P2;SDS_P1;SDS_P2;PMS_P1;PMS_P2;Temp;Humidity;BMP_temperature;BMP_pressure;BME280_temperature;BME280_humidity;BME280_pressure;Samples;Min_cycle;Max_cycle;Signal;HPM_P1;HPM_P2
2023/04/27 00:01:32;;;;;;;1999.90;999.90;;;13.40;99.90;;;;;;5052190;28;20028;-70
2023/04/27 00:03:58;;;;;;;1999.90;999.90;;;13.40;99.90;;;;;;5053050;28;20029;-77
2023/04/27 00:06:25;;;;;;;1999.90;999.90;;;13.40;99.90;;;;;;5053001;28;20025;-77
2023/04/27 00:08:51;;;;;;;1999.90;999.90;;;13.40;99.90;;;;;;5052606;28;20028;-77
2023/04/27 00:11:16;;;;;;;1999.90;999.90;;;13.50;99.90;;;;;;5052732;28;20025;-70
2023/04/27 00:13:42;;;;;;;1999.90;999.90;;;13.40;99.90;;;;;;5053045;28;20587;-70
2023/04/27 00:16:07;;;;;;;1999.90;999.90;;;13.40;99.90;;;;;;5052626;28;20028;-70
2023/04/27 00:18:33;;;;;;;1999.90;999.90;;;13.40;99.90;;;;;;5052597;28;20032;-76
2023/04/27 00:20:59;;;;;;;1999.90;999.90;;;13.50;99.90;;;;;;5052990;28;20017;-77
2023/04/27 00:23:25;;;;;;;1999.90;999.90;;;13.50;99.90;;;;;;5051810;28;20029;-77
2023/04/27 00:25:50;;;;;;;1999.90;999.90;;;13.50;99.90;;;;;;5035068;28;20402;-70
2023/04/27 00:28:16;;;;;;;1999.90;999.90;;;13.50;99.90;;;;;;5052586;28;20021;-70
2023/04/27 00:30:42;;;;;;;1999.90;999.90;;;13.50;99.90;;;;;;5052652;28;20028;-77
2023/04/27 00:33:07;;;;;;;1999.90;999.90;;;13.50;99.90;;;;;;5052825;28;20033;-77
2023/04/27 00:35:33;;;;;;;1999.90;999.90;;;13.50;99.90;;;;;;5052673;28;20025;-70
2023/04/27 00:37:58;;;;;;;1999.90;999.90;;;13.50;99.90;;;;;;5052631;28;20039;-69
2023/04/27 00:40:24;;;;;;;1999.90;999.90;;;13.50;99.90;;;;;;5052463;28;20029;-70
2023/04/27 00:42:50;;;;;;;1999.90;999.90;;;13.50;99.90;;;;;;5052542;28;20107;-77
2023/04/27 00:45:15;;;;;;;1999.90;999.90;;;13.50;99.90;;;;;;5053610;28;20024;-77
2023/04/27 00:47:42;;;;;;;1999.90;999.90;;;13.50;99.90;;;;;;5056222;28;20086;-77
2023/04/27 00:50:09;;;;;;;1999.90;999.90;;;13.50;99.90;;;;;;5056693;28;20025;-70
2023/04/27 00:52:38;;;;;;;1999.90;999.90;;;13.50;99.90;;;;;;5056177;28;20538;-70
2023/04/27 00:55:04;;;;;;;1999.90;999.90;;;13.50;99.90;;;;;;5056398;28;20025;-69
2023/04/27 00:57:32;;;;;;;1999.90;999.90;;;13.50;99.90;;;;;;5056465;28;20079;-77
2023/04/27 00:59:59;;;;;;;1999.90;999.90;;;13.50;99.90;;;;;;5056377;28;20496;-70
2023/04/27 01:02:25;;;;;;;1999.90;999.90;;;13.40;99.90;;;;;;5038254;28;20045;-77
2023/04/27 01:04:52;;;;;;;1999.90;999.90;;;13.40;99.90;;;;;;5056467;28;20063;-69
2023/04/27 01:07:17;;;;;;;1999.90;999.90;;;13.30;99.90;;;;;;5056191;28;20017;-70
2023/04/27 01:09:43;;;;;;;1999.90;999.90;;;13.30;99.90;;;;;;5056294;28;20395;-77
2023/04/27 01:12:09;;;;;;;1999.90;999.90;;;13.20;99.90;;;;;;5056230;28;20480;-77
2023/04/27 01:14:36;;;;;;;1999.90;999.90;;;13.20;99.90;;;;;;5055906;28;20100;-76
2023/04/27 01:17:01;;;;;;;1999.90;999.90;;;13.30;99.90;;;;;;5056283;28;20123;-77
2023/04/27 01:19:27;;;;;;;1999.90;999.90;;;13.30;99.90;;;;;;5055159;28;20040;-69
2023/04/27 01:21:53;;;;;;;1999.90;999.90;;;13.30;99.90;;;;;;5056069;28;20021;-77
2023/04/27 01:24:19;;;;;;;1999.90;999.90;;;13.30;99.90;;;;;;5054779;28;20021;-69
2023/04/27 01:26:45;;;;;;;1999.90;999.90;;;13.30;99.90;;;;;;5055838;28;20039;-77
2023/04/27 01:29:10;;;;;;;1999.90;999.90;;;13.30;99.90;;;;;;5055840;28;20095;-69
2023/04/27 01:31:37;;;;;;;1999.90;999.90;;;13.30;99.90;;;;;;5037904;28;20472;-69
2023/04/27 01:34:03;;;;;;;1999.90;999.90;;;13.30;99.90;;;;;;5055854;28;20083;-70
2023/04/27 01:36:28;;;;;;;1999.90;999.90;;;13.30;99.90;;;;;;5055640;28;20484;-77
2023/04/27 01:38:54;;;;;;;1999.90;999.90;;;13.30;99.90;;;;;;5055361;28;20373;-77
2023/04/27 01:41:20;;;;;;;1999.90;999.90;;;13.30;99.90;;;;;;5055886;28;20067;-77
2023/04/27 01:43:45;;;;;;;1999.90;999.90;;;13.30;99.90;;;;;;5055531;28;20523;-70
2023/04/27 01:46:13;;;;;;;1999.90;999.90;;;13.30;99.90;;;;;;5037340;28;20039;-76
2023/04/27 01:48:39;;;;;;;1999.90;999.90;;;13.40;99.90;;;;;;5055250;28;20025;-76
2023/04/27 01:51:05;;;;;;;1999.90;999.90;;;13.40;99.90;;;;;;5055141;28;20099;-76
2023/04/27 01:53:31;;;;;;;1999.90;999.90;;;13.30;99.90;;;;;;5055358;28;20021;-76
2023/04/27 01:55:58;;;;;;;1999.90;999.90;;;13.40;99.90;;;;;;5055433;28;20442;-70
2023/04/27 01:58:24;;;;;;;1999.90;999.90;;;13.40;99.90;;;;;;5055296;28;20391;-69
2023/04/27 02:00:50;;;;;;;1999.90;999.90;;;13.40;99.90;;;;;;5055024;28;20021;-77
2023/04/27 02:03:15;;;;;;;1999.90;999.90;;;13.30;99.90;;;;;;5054747;28;20266;-70
2023/04/27 02:05:41;;;;;;;1999.90;999.90;;;13.40;99.90;;;;;;5055494;28;20029;-70
2023/04/27 02:08:07;;;;;;;1999.90;999.90;;;13.40;99.90;;;;;;5055022;28;20024;-69
2023/04/27 02:10:34;;;;;;;1999.90;999.90;;;13.40;99.90;;;;;;5054900;28;20037;-70
2023/04/27 02:13:00;;;;;;;1999.90;999.90;;;13.40;99.90;;;;;;5054867;28;20028;-70
2023/04/27 02:15:25;;;;;;;1999.90;999.90;;;13.40;99.90;;;;;;5054832;28;20033;-77
2023/04/27 02:17:51;;;;;;;1999.90;999.90;;;13.40;99.90;;;;;;5055270;28;20033;-77
2023/04/27 02:20:17;;;;;;;1999.90;999.90;;;13.40;99.90;;;;;;5054686;28;20029;-77
2023/04/27 02:22:43;;;;;;;1999.90;999.90;;;13.40;99.90;;;;;;5054936;28;20075;-69
2023/04/27 02:25:10;;;;;;;1999.90;999.90;;;13.40;99.90;;;;;;5053865;28;20460;-69
2023/04/27 02:27:40;;;;;;;1999.90;999.90;;;13.40;99.90;;;;;;5054683;28;20020;-77
2023/04/27 02:30:06;;;;;;;1999.90;999.90;;;13.40;99.90;;;;;;5054465;28;20131;-70
2023/04/27 02:32:32;;;;;;;1999.90;999.90;;;13.40;99.90;;;;;;5054551;28;20068;-69
2023/04/27 02:34:58;;;;;;;1999.90;999.90;;;13.30;99.90;;;;;;5054557;28;20071;-69
2023/04/27 02:37:24;;;;;;;1999.90;999.90;;;13.40;99.90;;;;;;5054476;28;20106;-69
2023/04/27 02:39:49;;;;;;;1999.90;999.90;;;13.40;99.90;;;;;;5054310;28;20025;-77
2023/04/27 02:42:15;;;;;;;1999.90;999.90;;;13.40;99.90;;;;;;5054690;28;20021;-69
2023/04/27 02:44:41;;;;;;;1999.90;999.90;;;13.30;99.90;;;;;;5054284;28;20048;-69
2023/04/27 02:47:07;;;;;;;1999.90;999.90;;;13.30;99.90;;;;;;5054487;28;20014;-77
2023/04/27 02:49:32;;;;;;;1999.90;999.90;;;13.30;99.90;;;;;;5054232;28;20445;-70
2023/04/27 02:51:58;;;;;;;1999.90;999.90;;;13.30;99.90;;;;;;5054176;28;20044;-70
2023/04/27 02:54:24;;;;;;;1999.90;999.90;;;13.30;99.90;;;;;;5054161;28;20033;-69
2023/04/27 02:56:50;;;;;;;1999.90;999.90;;;13.20;99.90;;;;;;5054066;28;20391;-77
2023/04/27 02:59:15;;;;;;;1999.90;999.90;;;13.30;99.90;;;;;;5054174;28;20029;-77
2023/04/27 03:01:41;;;;;;;1999.90;999.90;;;13.20;99.90;;;;;;5054033;28;20494;-69
2023/04/27 03:04:07;;;;;;;1999.90;999.90;;;13.20;99.90;;;;;;5054100;28;20537;-70
2023/04/27 03:06:32;;;;;;;1999.90;999.90;;;13.20;99.90;;;;;;5054225;28;20029;-76
2023/04/27 03:08:58;;;;;;;1999.90;999.90;;;13.20;99.90;;;;;;5053223;28;20039;-76
2023/04/27 03:11:24;;;;;;;1999.90;999.90;;;13.20;99.90;;;;;;5054186;28;20483;-77
2023/04/27 03:13:49;;;;;;;1999.90;999.90;;;13.30;99.90;;;;;;5053913;28;20025;-69
2023/04/27 03:16:15;;;;;;;1999.90;999.90;;;13.30;99.90;;;;;;5053523;28;20025;-69
2023/04/27 03:18:40;;;;;;;1999.90;999.90;;;13.30;99.90;;;;;;5053859;28;20080;-77
2023/04/27 03:21:10;;;;;;;1999.90;999.90;;;13.30;99.90;;;;;;5053781;28;20029;-77
2023/04/27 03:23:37;;;;;;;1999.90;999.90;;;13.30;99.90;;;;;;5053801;28;20152;-76
2023/04/27 03:26:07;;;;;;;1999.90;999.90;;;13.30;99.90;;;;;;5052725;28;20503;-77
2023/04/27 03:28:33;;;;;;;1999.90;999.90;;;13.30;99.90;;;;;;5053551;28;20017;-69
2023/04/27 03:30:59;;;;;;;1999.90;999.90;;;13.40;99.90;;;;;;5053475;28;20013;-69
2023/04/27 03:33:25;;;;;;;1999.90;999.90;;;13.40;99.90;;;;;;5053918;28;20021;-69
2023/04/27 03:35:55;;;;;;;1999.90;999.90;;;13.40;99.90;;;;;;5053418;28;20029;-69
2023/04/27 03:38:21;;;;;;;1999.90;999.90;;;13.40;99.90;;;;;;5053337;28;20104;-69
2023/04/27 03:40:47;;;;;;;1999.90;999.90;;;13.40;99.90;;;;;;5053071;28;20116;-69
2023/04/27 03:43:12;;;;;;;1999.90;999.90;;;13.40;99.90;;;;;;5053550;28;20029;-69
2023/04/27 03:45:38;;;;;;;1999.90;999.90;;;13.40;99.90;;;;;;5053159;28;20029;-69
2023/04/27 03:48:04;;;;;;;1999.90;999.90;;;13.40;99.90;;;;;;5053158;28;20104;-70
2023/04/27 03:50:29;;;;;;;1999.90;999.90;;;13.40;99.90;;;;;;5052943;28;20068;-70
2023/04/27 03:52:55;;;;;;;1999.90;999.90;;;13.40;99.90;;;;;;5053227;28;20488;-70
2023/04/27 03:55:21;;;;;;;1999.90;999.90;;;13.40;99.90;;;;;;5053004;28;20029;-69
2023/04/27 03:57:47;;;;;;;1999.90;999.90;;;13.40;99.90;;;;;;5053378;28;20028;-77
2023/04/27 04:00:14;;;;;;;1999.90;999.90;;;13.40;99.90;;;;;;5053050;28;20037;-70
2023/04/27 04:02:39;;;;;;;1999.90;999.90;;;13.40;99.90;;;;;;5052907;28;20063;-76
2023/04/27 04:05:05;;;;;;;1999.90;999.90;;;13.50;99.90;;;;;;5053132;28;20021;-77
2023/04/27 04:07:31;;;;;;;1999.90;999.90;;;13.50;99.90;;;;;;5053182;28;20032;-69
2023/04/27 04:09:56;;;;;;;1999.90;999.90;;;13.50;99.90;;;;;;5052954;28;20040;-69
2023/04/27 04:12:22;;;;;;;1999.90;999.90;;;13.40;99.90;;;;;;5052890;28;20108;-76
2023/04/27 04:14:47;;;;;;;1999.90;999.90;;;13.50;99.90;;;;;;5052504;28;20036;-77
2023/04/27 04:17:13;;;;;;;1999.90;999.90;;;13.40;99.90;;;;;;5052707;28;20029;-69
2023/04/27 04:19:39;;;;;;;1999.90;999.90;;;13.40;99.90;;;;;;5051298;28;20033;-70
2023/04/27 04:22:05;;;;;;;1999.90;999.90;;;13.50;99.90;;;;;;5053003;28;20025;-69
2023/04/27 04:24:30;;;;;;;1999.90;999.90;;;13.50;99.90;;;;;;5052676;28;20033;-70
2023/04/27 04:26:57;;;;;;;1999.90;999.90;;;13.50;99.90;;;;;;5051597;28;20032;-76
2023/04/27 04:29:23;;;;;;;1999.90;999.90;;;13.40;99.90;;;;;;5052887;28;20025;-77
2023/04/27 04:31:50;;;;;;;1999.90;999.90;;;13.40;99.90;;;;;;5052435;28;20078;-70
2023/04/27 04:34:16;;;;;;;1999.90;999.90;;;13.50;99.90;;;;;;5052500;28;20037;-70
2023/04/27 04:36:43;;;;;;;1999.90;999.90;;;13.40;99.90;;;;;;5052479;28;20086;-76
2023/04/27 04:39:08;;;;;;;1999.90;999.90;;;13.40;99.90;;;;;;5052372;28;20048;-69
2023/04/27 04:41:34;;;;;;;1999.90;999.90;;;13.40;99.90;;;;;;5052544;28;20500;-76
2023/04/27 04:43:59;;;;;;;1999.90;999.90;;;13.40;99.90;;;;;;5052444;28;20035;-77
2023/04/27 04:46:25;;;;;;;1999.90;999.90;;;13.40;99.90;;;;;;5052453;28;20097;-69
2023/04/27 04:48:51;;;;;;;1999.90;999.90;;;13.40;99.90;;;;;;5052123;28;20053;-69
2023/04/27 04:51:16;;;;;;;1999.90;999.90;;;13.40;99.90;;;;;;5052565;28;20049;-76
2023/04/27 04:53:42;;;;;;;1999.90;999.90;;;13.40;99.90;;;;;;5052329;28;20123;-69
2023/04/27 04:56:11;;;;;;;1999.90;999.90;;;13.40;99.90;;;;;;5052365;28;20016;-76
2023/04/27 04:58:37;;;;;;;1999.90;999.90;;;13.40;99.90;;;;;;5051349;28;20408;-70
2023/04/27 05:01:03;;;;;;;1999.90;999.90;;;13.30;99.90;;;;;;5050941;28;20028;-69
2023/04/27 05:03:29;;;;;;;1999.90;999.90;;;13.40;99.90;;;;;;5053629;28;20025;-75
2023/04/27 05:05:55;;;;;;;1999.90;999.90;;;13.40;99.90;;;;;;5070850;28;20027;-75
2023/04/27 05:08:20;;;;;;;1999.90;999.90;;;13.40;99.90;;;;;;5056822;28;20487;-69
2023/04/27 05:10:53;;;;;;;1999.90;999.90;;;13.40;99.90;;;;;;5051937;28;20108;-68
2023/04/27 05:13:19;;;;;;;1999.90;999.90;;;13.50;99.90;;;;;;5034026;28;20033;-69
2023/04/27 05:15:45;;;;;;;1999.90;999.90;;;13.50;99.90;;;;;;5051986;28;20508;-69
2023/04/27 05:18:11;;;;;;;1999.90;999.90;;;13.50;99.90;;;;;;5052075;28;20032;-75
2023/04/27 05:20:37;;;;;;;1999.90;999.90;;;13.60;99.90;;;;;;5051678;28;20104;-75
2023/04/27 05:23:04;;;;;;;1999.90;999.90;;;13.60;99.90;;;;;;5052073;28;20025;-76
2023/04/27 05:25:30;;;;;;;1999.90;999.90;;;13.60;99.90;;;;;;5051746;28;20025;-69
2023/04/27 05:27:56;;;;;;;1999.90;999.90;;;13.70;99.90;;;;;;5050813;28;20108;-69
2023/04/27 05:30:21;;;;;;;1999.90;999.90;;;13.70;99.90;;;;;;5051468;28;20104;-76
2023/04/27 05:32:47;;;;;;;1999.90;999.90;;;13.70;99.90;;;;;;5054569;28;20403;-76
2023/04/27 05:35:12;;;;;;;1999.90;999.90;;;13.80;99.90;;;;;;5052240;28;20086;-69
2023/04/27 05:37:38;;;;;;;1999.90;999.90;;;13.80;99.90;;;;;;5051543;28;20115;-69
2023/04/27 05:40:06;;;;;;;1999.90;999.90;;;13.80;99.90;;;;;;5054869;28;20025;-69
2023/04/27 05:42:31;;;;;;;1999.90;999.90;;;13.80;99.90;;;;;;5054205;28;20029;-76
2023/04/27 05:44:57;;;;;;;1999.90;999.90;;;13.90;99.90;;;;;;5055031;28;20392;-76
2023/04/27 05:47:22;;;;;;;1999.90;999.90;;;13.80;99.90;;;;;;5063304;28;20025;-77
2023/04/27 05:49:52;;;;;;;1999.90;999.90;;;14.00;99.90;;;;;;5054452;28;20025;-70
2023/04/27 05:52:18;;;;;;;1999.90;999.90;;;14.00;99.90;;;;;;5054149;28;20052;-71
2023/04/27 05:54:47;;;;;;;1999.90;999.90;;;14.00;99.90;;;;;;5054392;28;20422;-77
2023/04/27 05:57:13;;;;;;;1999.90;999.90;;;14.00;99.90;;;;;;5054594;28;20102;-77
2023/04/27 05:59:39;;;;;;;1999.90;999.90;;;14.10;99.90;;;;;;5054928;28;20024;-76
2023/04/27 06:02:05;;;;;;;1999.90;999.90;;;14.10;99.90;;;;;;5054427;28;20033;-76
2023/04/27 06:04:32;;;;;;;1999.90;999.90;;;14.10;99.90;;;;;;5053891;28;20025;-70
2023/04/27 06:06:58;;;;;;;1999.90;999.90;;;14.10;99.90;;;;;;5054196;28;20024;-70
2023/04/27 06:09:24;;;;;;;1999.90;999.90;;;14.20;99.90;;;;;;5052157;28;20047;-77
2023/04/27 06:11:50;;;;;;;1999.90;999.90;;;14.10;99.90;;;;;;5060038;28;20024;-76
2023/04/27 06:14:15;;;;;;;1999.90;999.90;;;14.20;99.90;;;;;;5068979;28;20108;-73
2023/04/27 06:16:41;;;;;;;1999.90;999.90;;;14.20;99.90;;;;;;5051975;28;20033;-69
2023/04/27 06:19:07;;;;;;;1999.90;999.90;;;14.20;99.90;;;;;;5051025;28;20427;-70
2023/04/27 06:21:33;;;;;;;1999.90;999.90;;;14.20;99.90;;;;;;5050423;28;20021;-69
2023/04/27 06:23:59;;;;;;;1999.90;999.90;;;14.10;99.90;;;;;;5051864;28;20043;-76
2023/04/27 06:26:25;;;;;;;1999.90;999.90;;;14.20;99.90;;;;;;5054802;28;20036;-76
2023/04/27 06:28:51;;;;;;;1999.90;999.90;;;14.20;99.90;;;;;;5062696;28;20369;-71
2023/04/27 06:31:17;;;;;;;1999.90;999.90;;;14.20;99.90;;;;;;5063601;28;20033;-70
2023/04/27 06:33:43;;;;;;;1999.90;999.90;;;14.20;99.90;;;;;;5050881;28;20035;-70
2023/04/27 06:36:08;;;;;;;1999.90;999.90;;;14.20;99.90;;;;;;5051816;28;20036;-69
2023/04/27 06:38:34;;;;;;;1999.90;999.90;;;14.10;99.90;;;;;;5055027;28;20431;-70
2023/04/27 06:40:59;;;;;;;1999.90;999.90;;;14.10;99.90;;;;;;5052876;28;20029;-70
2023/04/27 06:43:25;;;;;;;1999.90;999.90;;;14.10;99.90;;;;;;5062749;28;20032;-70
2023/04/27 06:45:51;;;;;;;1999.90;999.90;;;14.20;99.90;;;;;;5053774;28;20032;-69
2023/04/27 06:48:16;;;;;;;1999.90;999.90;;;14.20;99.90;;;;;;5051274;28;20040;-76
2023/04/27 06:50:42;;;;;;;1999.90;999.90;;;14.20;99.90;;;;;;5051717;28;20037;-77
2023/04/27 06:53:09;;;;;;;1999.90;999.90;;;14.20;99.90;;;;;;5051111;28;20072;-76
2023/04/27 06:55:35;;;;;;;1999.90;999.90;;;14.20;99.90;;;;;;5051605;28;20491;-69
2023/04/27 06:58:01;;;;;;;1999.90;999.90;;;14.30;99.90;;;;;;5051376;28;20055;-70
2023/04/27 07:00:28;;;;;;;1999.90;999.90;;;14.20;99.90;;;;;;5051393;28;20492;-70
2023/04/27 07:02:53;;;;;;;1999.90;999.90;;;14.20;99.90;;;;;;5050152;28;20027;-74
2023/04/27 07:05:19;;;;;;;1999.90;999.90;;;14.20;99.90;;;;;;5032195;28;20507;-70
2023/04/27 07:07:44;;;;;;;1999.90;999.90;;;14.20;99.90;;;;;;5040444;28;20017;-70
2023/04/27 07:10:10;;;;;;;1999.90;999.90;;;14.20;99.90;;;;;;5049268;28;20040;-70
2023/04/27 07:12:37;;;;;;;1999.90;999.90;;;14.20;99.90;;;;;;5045549;28;20029;-69
2023/04/27 07:15:05;;;;;;;1999.90;999.90;;;14.30;99.90;;;;;;5048523;28;20025;-74
2023/04/27 07:17:31;;;;;;;1999.90;999.90;;;14.20;99.90;;;;;;5047963;28;20020;-74
2023/04/27 07:19:57;;;;;;;1999.90;999.90;;;14.20;99.90;;;;;;5052125;28;20500;-70
2023/04/27 07:22:23;;;;;;;1999.90;999.90;;;14.20;99.90;;;;;;5042990;28;20057;-70
2023/04/27 07:24:50;;;;;;;1999.90;999.90;;;;;;;;;;5043755;28;20451;-69
2023/04/27 07:27:16;;;;;;;1999.90;999.90;;;;;;;;;;5046267;28;20025;-73
2023/04/27 07:29:42;;;;;;;1999.90;999.90;;;;;;;;;;5051072;28;20468;-73
2023/04/27 07:32:08;;;;;;;1999.90;999.90;;;;;;;;;;5051275;28;20032;-73
2023/04/27 07:34:34;;;;;;;1999.90;999.90;;;14.30;99.90;;;;;;5063708;28;20429;-69
2023/04/27 07:37:00;;;;;;;1999.90;999.90;;;14.60;99.90;;;;;;5057393;28;20033;-70
2023/04/27 07:39:26;;;;;;;1999.90;999.90;;;14.60;99.90;;;;;;5050294;28;20094;-74
2023/04/27 07:41:52;;;;;;;1999.90;999.90;;;14.70;99.90;;;;;;5043820;28;20027;-74
2023/04/27 07:44:18;;;;;;;1999.90;999.90;;;14.70;99.90;;;;;;5048965;28;20020;-74
2023/04/27 07:46:46;;;;;;;1999.90;999.90;;;14.80;99.90;;;;;;5050629;28;20377;-70
2023/04/27 07:49:12;;;;;;;1999.90;999.90;;;14.90;99.90;;;;;;5041951;28;20036;-70
2023/04/27 07:51:38;;;;;;;1999.90;999.90;;;15.00;99.90;;;;;;5045440;28;20048;-75
2023/04/27 07:54:05;;;;;;;1999.90;999.90;;;15.00;99.90;;;;;;5042679;28;20053;-74
2023/04/27 07:56:31;;;;;;;1999.90;999.90;;;15.10;99.90;;;;;;5046969;28;20021;-70
2023/04/27 07:58:57;;;;;;;1999.90;999.90;;;15.20;99.90;;;;;;5050558;28;20461;-75
2023/04/27 08:01:23;;;;;;;1999.90;999.90;;;15.10;99.90;;;;;;5049925;28;20057;-70
2023/04/27 08:03:49;;;;;;;1999.90;999.90;;;15.20;99.90;;;;;;5050629;28;20028;-70
2023/04/27 08:06:15;;;;;;;1999.90;999.90;;;15.10;99.90;;;;;;5049790;28;20365;-70
2023/04/27 08:08:40;;;;;;;1999.90;999.90;;;15.10;99.90;;;;;;5049908;28;20496;-75
2023/04/27 08:11:12;;;;;;;1999.90;999.90;;;15.30;99.90;;;;;;5045225;28;20131;-76
2023/04/27 08:13:38;;;;;;;1999.90;999.90;;;15.30;99.90;;;;;;5050229;28;20028;-70
2023/04/27 08:16:04;;;;;;;1999.90;999.90;;;15.30;99.90;;;;;;5050604;28;20025;-70
2023/04/27 08:18:29;;;;;;;1999.90;999.90;;;15.30;99.90;;;;;;5048485;28;20059;-76
2023/04/27 08:20:55;;;;;;;1999.90;999.90;;;15.40;99.90;;;;;;5036727;28;20033;-76
2023/04/27 08:23:20;;;;;;;1999.90;999.90;;;15.60;99.90;;;;;;5049914;28;20029;-70
2023/04/27 08:25:47;;;;;;;1999.90;999.90;;;15.90;99.90;;;;;;5049805;28;20017;-76
2023/04/27 08:28:14;;;;;;;1999.90;999.90;;;15.70;99.90;;;;;;5040894;28;20492;-70
2023/04/27 08:30:41;;;;;;;1999.90;999.90;;;15.70;99.90;;;;;;5046537;28;20104;-75
2023/04/27 08:33:07;;;;;;;1999.90;999.90;;;15.60;99.90;;;;;;5048589;28;20083;-76
2023/04/27 08:35:33;;;;;;;1999.90;999.90;;;15.70;99.90;;;;;;5048732;28;20519;-76
2023/04/27 08:37:59;;;;;;;1999.90;999.90;;;;;;;;;;5044865;28;20037;-75
2023/04/27 08:40:25;;;;;;;1999.90;999.90;;;;;;;;;;5044752;28;20114;-76
2023/04/27 08:42:55;;;;;;;1999.90;999.90;;;;;;;;;;5049615;28;20067;-70
2023/04/27 08:45:22;;;;;;;1999.90;999.90;;;;;;;;;;5054238;28;20498;-76
2023/04/27 08:47:49;;;;;;;1999.90;999.90;;;;;;;;;;5061170;28;20033;-75
2023/04/27 08:50:15;;;;;;;1999.90;999.90;;;;;;;;;;5049845;28;20033;-76
2023/04/27 08:52:46;;;;;;;1999.90;999.90;;;15.60;99.90;;;;;;5049220;28;20045;-70
2023/04/27 08:55:12;;;;;;;1999.90;999.90;;;15.90;99.90;;;;;;5046121;28;20029;-70
2023/04/27 08:57:38;;;;;;;1999.90;999.90;;;16.00;99.90;;;;;;5045082;28;20025;-75
2023/04/27 09:00:11;;;;;;;1999.90;999.90;;;16.10;99.90;;;;;;5038833;28;20037;-76
2023/04/27 09:02:44;;;;;;;1999.90;999.90;;;16.10;99.90;;;;;;5057652;28;20386;-76
2023/04/27 09:05:17;;;;;;;1999.90;999.90;;;;;;;;;;5049825;28;20033;-70
2023/04/27 09:07:43;;;;;;;1999.90;999.90;;;;;;;;;;5053077;28;20131;-70
2023/04/27 09:10:09;;;;;;;1999.90;999.90;;;16.20;99.90;;;;;;5052935;28;20043;-71
2023/04/27 09:12:35;;;;;;;1999.90;999.90;;;16.60;99.90;;;;;;5055824;28;20035;-75
2023/04/27 09:15:05;;;;;;;1999.90;999.90;;;16.70;99.90;;;;;;5064240;28;20051;-76
2023/04/27 09:17:32;;;;;;;1999.90;999.90;;;16.80;99.90;;;;;;5050795;28;20025;-70
2023/04/27 09:20:09;;;;;;;1999.90;999.90;;;16.90;99.90;;;;;;5052312;28;20025;-71
2023/04/27 09:22:53;;;;;;;1999.90;999.90;;;16.70;99.90;;;;;;5052569;28;20021;-75
2023/04/27 09:25:31;;;;;;;1999.90;999.90;;;16.90;99.90;;;;;;5053143;28;20074;-70
2023/04/27 09:27:58;;;;;;;1999.90;999.90;;;17.00;99.90;;;;;;5045984;28;20443;-74
2023/04/27 09:30:24;;;;;;;1999.90;999.90;;;17.30;99.90;;;;;;5046924;28;20055;-70
2023/04/27 09:32:56;;;;;;;1999.90;999.90;;;17.50;99.90;;;;;;5052216;28;20484;-70
2023/04/27 09:35:24;;;;;;;1999.90;999.90;;;17.30;99.90;;;;;;5052449;28;20404;-77
2023/04/27 09:37:53;;;;;;;1999.90;999.90;;;17.20;99.90;;;;;;5052675;28;20025;-76
2023/04/27 09:40:25;;;;;;;1999.90;999.90;;;17.30;99.90;;;;;;5051817;28;20071;-71
2023/04/27 09:42:51;;;;;;;1999.90;999.90;;;17.20;99.90;;;;;;5053065;28;20021;-69
2023/04/27 09:45:18;;;;;;;1999.90;999.90;;;17.30;99.90;;;;;;5065143;28;20028;-71
2023/04/27 09:47:45;;;;;;;1999.90;999.90;;;17.20;99.90;;;;;;5061316;28;20138;-70
2023/04/27 09:50:12;;;;;;;1999.90;999.90;;;17.20;99.90;;;;;;5052448;28;20032;-76
2023/04/27 09:52:38;;;;;;;1999.90;999.90;;;17.30;99.90;;;;;;5066617;28;20044;-76
2023/04/27 09:55:06;;;;;;;1999.90;999.90;;;17.20;99.90;;;;;;5023078;28;20033;-76
2023/04/27 09:57:49;;;;;;;1999.90;999.90;;;17.10;99.90;;;;;;5052411;28;20044;-70
2023/04/27 10:00:37;;;;;;;1999.90;999.90;;;17.10;99.90;;;;;;5052078;28;20044;-71
2023/04/27 10:03:27;;;;;;;1999.90;999.90;;;17.20;99.90;;;;;;5051198;28;20484;-77
2023/04/27 10:06:34;;;;;;;1999.90;999.90;;;17.60;99.90;;;;;;5052379;28;20056;-77
2023/04/27 10:09:05;;;;;;;1999.90;999.90;;;17.60;99.90;;;;;;5050377;28;20052;-77
2023/04/27 10:11:46;;;;;;;1999.90;999.90;;;17.80;99.90;;;;;;5047282;28;20549;-70
2023/04/27 10:14:17;;;;;;;1999.90;999.90;;;17.90;99.90;;;;;;5049590;28;20369;-71
2023/04/27 10:16:51;;;;;;;1999.90;999.90;;;17.70;99.90;;;;;;5040713;28;20104;-77
2023/04/27 10:19:16;;;;;;;1999.90;999.90;;;17.80;99.90;;;;;;5042306;28;20114;-71
2023/04/27 10:21:55;;;;;;;1999.90;999.90;;;17.90;99.90;;;;;;5052758;28;20061;-77
2023/04/27 10:24:37;;;;;;;1999.90;999.90;;;17.80;99.90;;;;;;5046665;28;20028;-77
2023/04/27 10:27:10;;;;;;;1999.90;999.90;;;17.80;99.90;;;;;;5046896;28;20231;-78
2023/04/27 10:29:41;;;;;;;1999.90;999.90;;;18.00;99.90;;;;;;5050559;28;20032;-71
2023/04/27 10:32:11;;;;;;;1999.90;999.90;;;18.00;99.90;;;;;;5049718;28;20091;-71
2023/04/27 10:34:37;;;;;;;1999.90;999.90;;;17.90;99.90;;;;;;5051373;28;20024;-76
2023/04/27 10:37:05;;;;;;;1999.90;999.90;;;18.20;99.90;;;;;;5052010;28;20526;-71
2023/04/27 10:39:36;;;;;;;1999.90;999.90;;;18.30;99.90;;;;;;5052097;28;20025;-71
2023/04/27 10:42:02;;;;;;;1999.90;999.90;;;18.30;99.90;;;;;;5050836;28;20242;-76
2023/04/27 10:44:29;;;;;;;1999.90;999.90;;;18.20;99.90;;;;;;5054009;28;20105;-70
2023/04/27 10:46:58;;;;;;;1999.90;999.90;;;18.10;99.90;;;;;;5053389;28;20497;-70
2023/04/27 10:49:26;;;;;;;1999.90;999.90;;;18.30;99.90;;;;;;5034189;28;20567;-71
2023/04/27 10:51:51;;;;;;;1999.90;999.90;;;18.40;99.90;;;;;;5052696;28;20048;-77
2023/04/27 10:54:18;;;;;;;1999.90;999.90;;;18.70;99.90;;;;;;5034648;28;20037;-72
2023/04/27 10:56:44;;;;;;;1999.90;999.90;;;19.00;99.90;;;;;;5050897;28;20029;-77
2023/04/27 10:59:10;;;;;;;1999.90;999.90;;;18.70;99.90;;;;;;5050864;28;20126;-77
2023/04/27 11:01:36;;;;;;;1999.90;999.90;;;18.50;99.90;;;;;;5051122;28;20470;-77
2023/04/27 11:04:02;;;;;;;1999.90;999.90;;;18.30;99.90;;;;;;5050828;28;20018;-71
2023/04/27 11:06:29;;;;;;;1999.90;999.90;;;18.40;99.90;;;;;;5051340;28;20033;-76
2023/04/27 11:08:55;;;;;;;1999.90;999.90;;;18.60;99.90;;;;;;5043123;28;20026;-76
2023/04/27 11:11:23;;;;;;;1999.90;999.90;;;18.60;99.90;;;;;;5049659;28;20021;-77
2023/04/27 11:13:51;;;;;;;1999.90;999.90;;;18.80;99.90;;;;;;5040225;28;20463;-71
2023/04/27 11:16:18;;;;;;;1999.90;999.90;;;18.90;99.90;;;;;;5055036;28;20021;-71
2023/04/27 11:18:44;;;;;;;1999.90;999.90;;;18.70;99.90;;;;;;5049882;28;20040;-71
2023/04/27 11:21:11;;;;;;;1999.90;999.90;;;18.80;99.90;;;;;;5050753;28;20071;-71
2023/04/27 11:23:37;;;;;;;1999.90;999.90;;;19.00;99.90;;;;;;5050442;28;20029;-77
2023/04/27 11:26:25;;;;;;;1999.90;999.90;;;19.10;99.90;;;;;;5047449;28;20395;-71
2023/04/27 11:29:08;;;;;;;1999.90;999.90;;;18.90;99.90;;;;;;5039147;28;20028;-71
2023/04/27 11:31:42;;;;;;;;;;;18.80;99.90;;;;;;5048660;28;20018;-71
2023/04/27 11:34:13;;;;;;;1999.90;999.90;;;19.10;99.90;;;;;;5047467;28;19921;-76
2023/04/27 11:36:39;;;;;;;1999.90;999.90;;;19.10;99.90;;;;;;5048469;28;20401;-71
2023/04/27 11:39:05;;;;;;;1999.90;999.90;;;19.20;99.90;;;;;;5029261;28;20033;-78
2023/04/27 11:41:35;;;;;;;1999.90;999.90;;;19.70;99.90;;;;;;5048343;28;20029;-76
2023/04/27 11:44:06;;;;;;;1999.90;999.90;;;20.10;99.90;;;;;;5051227;28;20024;-72
2023/04/27 11:46:35;;;;;;;1999.90;999.90;;;19.90;99.90;;;;;;5066425;28;20020;-77
2023/04/27 11:49:02;;;;;;;1999.90;999.90;;;20.50;99.90;;;;;;5041391;28;20288;-73
2023/04/27 11:51:30;;;;;;;1999.90;999.90;;;20.80;99.90;;;;;;5049604;28;20071;-72
2023/04/27 11:54:04;;;;;;;1999.90;999.90;;;20.90;99.90;;;;;;5049273;28;20028;-73
2023/04/27 11:56:40;;;;;;;1999.90;999.90;;;21.10;99.90;;;;;;5049273;28;20021;-77
2023/04/27 11:59:18;;;;;;;1999.90;999.90;;;20.90;99.90;;;;;;5045256;28;20025;-72
2023/04/27 12:01:43;;;;;;;1999.90;999.90;;;20.80;99.90;;;;;;5041496;28;20484;-71
2023/04/27 12:04:09;;;;;;;1999.90;999.90;;;21.00;99.90;;;;;;5043383;28;20033;-77